CheckWX is a tool to help pilots better visualize weather data.  It is not intended as a substitute for an official pre-flight weather briefing.

08:53:57 UTC

KDYR METAR
Dyersburg Regional Airport
Dyersburg, Tennessee, USA
Current

22 mins ago

KDYR 220832Z AUTO 33003KT 10SM -RA BKN028 OVC034 19/17 A2989 RMK AO2 RAB0757 PNO $
Observed
May-22 @ 08:32 UTC
Wind
  • 330° at 3 KTS
Visibility
10 SM
Flight Rules
MVFR
Conditions
Light Rain
Cloud Levels
  • Broken at 2,800' AGL
  • Overcast at 3,400' AGL
Temperature
19°C / 66°F
Dewpoint
17°C / 63°F
Humidity
88%
Altimeter
29.89" Hg
Pressure
1012.22 hPa
Previous

58 mins ago

KDYR 220756Z AUTO 34004KT 10SM BKN038 BKN060 OVC110 19/17 A2986 RMK AO2 SLP122 T01940167 PNO $
Observed
May-22 @ 07:56 UTC
Wind
  • 340° at 4 KTS
Visibility
10 SM
Flight Rules
VFR
Cloud Levels
  • Broken at 3,800' AGL
  • Broken at 6,000' AGL
  • Overcast at 11,000' AGL
Temperature
19°C / 66°F
Dewpoint
17°C / 63°F
Humidity
88%
Altimeter
29.86" Hg
Pressure
1011.22 hPa
Previous

2 hours ago

KDYR 220656Z AUTO 30005KT 10SM FEW039 BKN049 BKN060 20/17 A2988 RMK AO2 PRESRR SLP129 T02000167 PNO $
Observed
May-22 @ 06:56 UTC
Wind
  • 300° at 5 KTS
Visibility
10 SM
Flight Rules
VFR
Cloud Levels
  • Few at 3,900' AGL
  • Broken at 4,900' AGL
  • Broken at 6,000' AGL
Temperature
20°C / 68°F
Dewpoint
17°C / 63°F
Humidity
83%
Altimeter
29.88" Hg
Pressure
1011.82 hPa